sensor_id;sensor_type;location;lat;lon;timestamp;P1;durP1;ratioP1;P2;durP2;ratioP2
56667;SDS011;42542;48.360;10.958;2023-02-08T00:00:55;16.53;;;5.17;;
56667;SDS011;42542;48.360;10.958;2023-02-08T00:03:57;17.20;;;5.88;;
56667;SDS011;42542;48.360;10.958;2023-02-08T00:06:58;16.05;;;5.47;;
56667;SDS011;42542;48.360;10.958;2023-02-08T00:10:00;16.40;;;5.97;;
56667;SDS011;42542;48.360;10.958;2023-02-08T00:13:05;19.60;;;5.63;;
56667;SDS011;42542;48.360;10.958;2023-02-08T00:16:06;18.02;;;5.90;;
56667;SDS011;42542;48.360;10.958;2023-02-08T00:19:08;16.40;;;5.88;;
56667;SDS011;42542;48.360;10.958;2023-02-08T00:22:10;15.85;;;4.93;;
56667;SDS011;42542;48.360;10.958;2023-02-08T00:25:11;16.35;;;5.47;;
56667;SDS011;42542;48.360;10.958;2023-02-08T00:28:14;15.13;;;5.65;;
56667;SDS011;42542;48.360;10.958;2023-02-08T00:31:16;19.27;;;5.73;;
56667;SDS011;42542;48.360;10.958;2023-02-08T00:34:18;17.80;;;5.95;;
56667;SDS011;42542;48.360;10.958;2023-02-08T00:37:20;17.85;;;6.15;;
56667;SDS011;42542;48.360;10.958;2023-02-08T00:40:23;19.20;;;6.17;;
56667;SDS011;42542;48.360;10.958;2023-02-08T00:43:25;19.83;;;5.65;;
56667;SDS011;42542;48.360;10.958;2023-02-08T00:46:27;15.40;;;5.82;;
56667;SDS011;42542;48.360;10.958;2023-02-08T00:49:28;17.85;;;6.03;;
56667;SDS011;42542;48.360;10.958;2023-02-08T00:52:30;18.70;;;5.80;;
56667;SDS011;42542;48.360;10.958;2023-02-08T00:55:31;17.98;;;5.88;;
56667;SDS011;42542;48.360;10.958;2023-02-08T00:58:33;18.60;;;5.95;;
56667;SDS011;42542;48.360;10.958;2023-02-08T01:01:35;15.93;;;6.33;;
56667;SDS011;42542;48.360;10.958;2023-02-08T01:04:38;17.52;;;5.65;;
56667;SDS011;42542;48.360;10.958;2023-02-08T01:07:40;15.93;;;5.78;;
56667;SDS011;42542;48.360;10.958;2023-02-08T01:10:41;19.77;;;5.93;;
56667;SDS011;42542;48.360;10.958;2023-02-08T01:13:43;19.00;;;6.28;;
56667;SDS011;42542;48.360;10.958;2023-02-08T01:16:44;21.45;;;6.45;;
56667;SDS011;42542;48.360;10.958;2023-02-08T01:19:47;17.05;;;6.05;;
56667;SDS011;42542;48.360;10.958;2023-02-08T01:22:48;14.88;;;5.95;;
56667;SDS011;42542;48.360;10.958;2023-02-08T01:25:50;20.70;;;6.57;;
56667;SDS011;42542;48.360;10.958;2023-02-08T01:28:52;23.40;;;6.97;;
56667;SDS011;42542;48.360;10.958;2023-02-08T01:31:56;17.93;;;6.63;;
56667;SDS011;42542;48.360;10.958;2023-02-08T01:34:57;21.40;;;6.82;;
56667;SDS011;42542;48.360;10.958;2023-02-08T01:37:59;21.67;;;6.30;;
56667;SDS011;42542;48.360;10.958;2023-02-08T01:41:01;21.27;;;6.67;;
56667;SDS011;42542;48.360;10.958;2023-02-08T01:47:11;17.85;;;6.38;;
56667;SDS011;42542;48.360;10.958;2023-02-08T01:50:13;22.63;;;6.93;;
56667;SDS011;42542;48.360;10.958;2023-02-08T01:53:17;19.35;;;6.38;;
56667;SDS011;42542;48.360;10.958;2023-02-08T01:56:20;20.67;;;7.18;;
56667;SDS011;42542;48.360;10.958;2023-02-08T01:59:28;18.48;;;5.55;;
56667;SDS011;42542;48.360;10.958;2023-02-08T02:02:36;20.10;;;6.67;;
56667;SDS011;42542;48.360;10.958;2023-02-08T02:05:43;20.92;;;6.38;;
56667;SDS011;42542;48.360;10.958;2023-02-08T02:09:02;19.85;;;6.20;;
56667;SDS011;42542;48.360;10.958;2023-02-08T02:12:12;20.67;;;6.70;;
56667;SDS011;42542;48.360;10.958;2023-02-08T02:15:14;21.15;;;7.18;;
56667;SDS011;42542;48.360;10.958;2023-02-08T02:18:23;20.85;;;6.63;;
56667;SDS011;42542;48.360;10.958;2023-02-08T02:21:32;17.45;;;5.93;;
56667;SDS011;42542;48.360;10.958;2023-02-08T02:34:49;19.27;;;7.33;;
56667;SDS011;42542;48.360;10.958;2023-02-08T02:41:35;17.73;;;6.63;;
56667;SDS011;42542;48.360;10.958;2023-02-08T02:45:22;22.07;;;7.10;;
56667;SDS011;42542;48.360;10.958;2023-02-08T02:48:47;21.55;;;7.85;;
56667;SDS011;42542;48.360;10.958;2023-02-08T02:52:11;24.25;;;7.80;;
56667;SDS011;42542;48.360;10.958;2023-02-08T02:55:19;20.73;;;6.93;;
56667;SDS011;42542;48.360;10.958;2023-02-08T02:58:25;23.52;;;7.75;;
56667;SDS011;42542;48.360;10.958;2023-02-08T03:01:27;24.75;;;7.90;;
56667;SDS011;42542;48.360;10.958;2023-02-08T03:11:30;20.42;;;7.35;;
56667;SDS011;42542;48.360;10.958;2023-02-08T03:18:02;21.30;;;7.30;;
56667;SDS011;42542;48.360;10.958;2023-02-08T03:21:14;19.52;;;7.22;;
56667;SDS011;42542;48.360;10.958;2023-02-08T03:28:04;19.38;;;7.38;;
56667;SDS011;42542;48.360;10.958;2023-02-08T03:31:14;23.88;;;7.90;;
56667;SDS011;42542;48.360;10.958;2023-02-08T03:34:23;22.35;;;7.68;;
56667;SDS011;42542;48.360;10.958;2023-02-08T03:37:39;20.92;;;7.50;;
56667;SDS011;42542;48.360;10.958;2023-02-08T03:40:46;20.70;;;7.70;;
56667;SDS011;42542;48.360;10.958;2023-02-08T03:43:54;21.27;;;7.38;;
56667;SDS011;42542;48.360;10.958;2023-02-08T03:47:14;21.75;;;7.45;;
56667;SDS011;42542;48.360;10.958;2023-02-08T03:50:18;22.53;;;7.30;;
56667;SDS011;42542;48.360;10.958;2023-02-08T03:53:21;21.27;;;7.80;;
56667;SDS011;42542;48.360;10.958;2023-02-08T03:56:48;21.88;;;7.60;;
56667;SDS011;42542;48.360;10.958;2023-02-08T04:00:00;22.13;;;7.90;;
56667;SDS011;42542;48.360;10.958;2023-02-08T04:03:14;20.20;;;7.35;;
56667;SDS011;42542;48.360;10.958;2023-02-08T04:06:22;21.85;;;7.68;;
56667;SDS011;42542;48.360;10.958;2023-02-08T04:09:24;23.10;;;8.27;;
56667;SDS011;42542;48.360;10.958;2023-02-08T04:12:25;20.43;;;7.83;;
56667;SDS011;42542;48.360;10.958;2023-02-08T04:15:27;21.85;;;7.95;;
56667;SDS011;42542;48.360;10.958;2023-02-08T04:18:29;19.92;;;7.28;;
56667;SDS011;42542;48.360;10.958;2023-02-08T04:21:31;22.37;;;7.83;;
56667;SDS011;42542;48.360;10.958;2023-02-08T04:24:33;22.60;;;7.88;;
56667;SDS011;42542;48.360;10.958;2023-02-08T04:27:35;25.40;;;8.30;;
56667;SDS011;42542;48.360;10.958;2023-02-08T04:30:36;24.02;;;7.88;;
56667;SDS011;42542;48.360;10.958;2023-02-08T04:33:38;28.38;;;8.05;;
56667;SDS011;42542;48.360;10.958;2023-02-08T04:36:39;22.73;;;7.88;;
56667;SDS011;42542;48.360;10.958;2023-02-08T04:39:41;27.20;;;8.48;;
56667;SDS011;42542;48.360;10.958;2023-02-08T04:42:43;26.77;;;8.60;;
56667;SDS011;42542;48.360;10.958;2023-02-08T04:45:44;24.42;;;7.90;;
56667;SDS011;42542;48.360;10.958;2023-02-08T04:48:46;27.70;;;8.50;;
56667;SDS011;42542;48.360;10.958;2023-02-08T04:51:47;22.50;;;7.97;;
56667;SDS011;42542;48.360;10.958;2023-02-08T04:54:50;27.30;;;8.48;;
56667;SDS011;42542;48.360;10.958;2023-02-08T04:57:51;25.48;;;8.20;;
56667;SDS011;42542;48.360;10.958;2023-02-08T05:00:53;24.75;;;8.20;;
56667;SDS011;42542;48.360;10.958;2023-02-08T05:03:54;21.23;;;7.85;;
56667;SDS011;42542;48.360;10.958;2023-02-08T05:06:56;22.05;;;7.22;;
56667;SDS011;42542;48.360;10.958;2023-02-08T05:09:57;26.13;;;8.82;;
56667;SDS011;42542;48.360;10.958;2023-02-08T05:12:59;23.50;;;8.37;;
56667;SDS011;42542;48.360;10.958;2023-02-08T05:16:01;22.58;;;8.05;;
56667;SDS011;42542;48.360;10.958;2023-02-08T05:19:03;20.88;;;8.02;;
56667;SDS011;42542;48.360;10.958;2023-02-08T05:22:04;20.67;;;7.60;;
56667;SDS011;42542;48.360;10.958;2023-02-08T05:25:06;24.13;;;8.52;;
56667;SDS011;42542;48.360;10.958;2023-02-08T05:28:08;24.15;;;8.32;;
56667;SDS011;42542;48.360;10.958;2023-02-08T05:31:10;25.00;;;8.02;;
56667;SDS011;42542;48.360;10.958;2023-02-08T05:34:15;22.17;;;7.65;;
56667;SDS011;42542;48.360;10.958;2023-02-08T05:37:16;26.23;;;9.25;;
56667;SDS011;42542;48.360;10.958;2023-02-08T05:40:18;23.50;;;8.80;;
56667;SDS011;42542;48.360;10.958;2023-02-08T05:43:19;24.87;;;8.43;;
56667;SDS011;42542;48.360;10.958;2023-02-08T05:46:21;23.77;;;8.55;;
56667;SDS011;42542;48.360;10.958;2023-02-08T05:49:23;22.55;;;8.80;;
56667;SDS011;42542;48.360;10.958;2023-02-08T05:52:25;23.23;;;8.13;;
56667;SDS011;42542;48.360;10.958;2023-02-08T05:55:26;24.52;;;9.35;;
56667;SDS011;42542;48.360;10.958;2023-02-08T05:58:28;25.88;;;8.55;;
56667;SDS011;42542;48.360;10.958;2023-02-08T06:01:30;28.40;;;9.13;;
56667;SDS011;42542;48.360;10.958;2023-02-08T06:04:32;25.15;;;8.75;;
56667;SDS011;42542;48.360;10.958;2023-02-08T06:07:33;26.73;;;8.57;;
56667;SDS011;42542;48.360;10.958;2023-02-08T06:10:35;28.50;;;9.38;;
56667;SDS011;42542;48.360;10.958;2023-02-08T06:13:37;25.23;;;9.47;;
56667;SDS011;42542;48.360;10.958;2023-02-08T06:16:39;24.48;;;9.05;;
56667;SDS011;42542;48.360;10.958;2023-02-08T06:19:41;24.48;;;8.95;;
56667;SDS011;42542;48.360;10.958;2023-02-08T06:22:42;26.47;;;8.97;;
56667;SDS011;42542;48.360;10.958;2023-02-08T06:25:44;25.33;;;9.60;;
56667;SDS011;42542;48.360;10.958;2023-02-08T06:28:45;27.77;;;9.63;;
56667;SDS011;42542;48.360;10.958;2023-02-08T06:31:47;25.63;;;9.30;;
56667;SDS011;42542;48.360;10.958;2023-02-08T06:34:49;26.17;;;9.07;;
56667;SDS011;42542;48.360;10.958;2023-02-08T06:37:51;25.63;;;9.50;;
56667;SDS011;42542;48.360;10.958;2023-02-08T06:40:53;26.60;;;9.55;;
56667;SDS011;42542;48.360;10.958;2023-02-08T06:43:54;29.33;;;8.87;;
56667;SDS011;42542;48.360;10.958;2023-02-08T06:46:59;25.38;;;9.48;;
56667;SDS011;42542;48.360;10.958;2023-02-08T06:50:00;27.73;;;9.82;;
56667;SDS011;42542;48.360;10.958;2023-02-08T06:53:02;25.07;;;9.47;;
56667;SDS011;42542;48.360;10.958;2023-02-08T06:56:04;28.70;;;9.35;;
56667;SDS011;42542;48.360;10.958;2023-02-08T06:59:06;25.95;;;9.30;;
56667;SDS011;42542;48.360;10.958;2023-02-08T07:02:15;26.20;;;9.18;;
56667;SDS011;42542;48.360;10.958;2023-02-08T07:05:18;24.52;;;8.73;;
56667;SDS011;42542;48.360;10.958;2023-02-08T07:08:20;26.60;;;9.27;;
56667;SDS011;42542;48.360;10.958;2023-02-08T07:11:21;25.88;;;9.43;;
56667;SDS011;42542;48.360;10.958;2023-02-08T07:14:23;28.90;;;9.23;;
56667;SDS011;42542;48.360;10.958;2023-02-08T07:17:24;28.17;;;9.55;;
56667;SDS011;42542;48.360;10.958;2023-02-08T07:20:26;33.65;;;9.80;;
56667;SDS011;42542;48.360;10.958;2023-02-08T07:23:27;26.80;;;9.03;;
56667;SDS011;42542;48.360;10.958;2023-02-08T07:26:29;24.35;;;10.00;;
56667;SDS011;42542;48.360;10.958;2023-02-08T07:29:31;30.05;;;10.20;;
56667;SDS011;42542;48.360;10.958;2023-02-08T07:32:33;29.98;;;10.40;;
56667;SDS011;42542;48.360;10.958;2023-02-08T07:35:35;27.30;;;9.15;;
56667;SDS011;42542;48.360;10.958;2023-02-08T07:38:37;29.15;;;9.98;;
56667;SDS011;42542;48.360;10.958;2023-02-08T07:41:39;31.98;;;10.90;;
56667;SDS011;42542;48.360;10.958;2023-02-08T07:44:40;26.10;;;9.23;;
56667;SDS011;42542;48.360;10.958;2023-02-08T07:47:42;28.75;;;9.88;;
56667;SDS011;42542;48.360;10.958;2023-02-08T07:50:46;28.95;;;11.00;;
56667;SDS011;42542;48.360;10.958;2023-02-08T07:53:48;27.90;;;9.97;;
56667;SDS011;42542;48.360;10.958;2023-02-08T07:56:50;30.75;;;10.30;;
56667;SDS011;42542;48.360;10.958;2023-02-08T07:59:51;30.33;;;10.40;;
56667;SDS011;42542;48.360;10.958;2023-02-08T08:02:54;29.58;;;9.75;;
56667;SDS011;42542;48.360;10.958;2023-02-08T08:05:56;29.90;;;10.27;;
56667;SDS011;42542;48.360;10.958;2023-02-08T08:08:57;29.77;;;10.05;;
56667;SDS011;42542;48.360;10.958;2023-02-08T08:11:59;26.95;;;9.50;;
56667;SDS011;42542;48.360;10.958;2023-02-08T08:15:00;28.30;;;10.10;;
56667;SDS011;42542;48.360;10.958;2023-02-08T08:18:02;27.88;;;10.27;;
56667;SDS011;42542;48.360;10.958;2023-02-08T08:21:03;28.15;;;9.77;;
56667;SDS011;42542;48.360;10.958;2023-02-08T08:24:05;28.98;;;9.68;;
56667;SDS011;42542;48.360;10.958;2023-02-08T08:27:07;30.50;;;9.90;;
56667;SDS011;42542;48.360;10.958;2023-02-08T08:30:09;34.25;;;9.77;;
56667;SDS011;42542;48.360;10.958;2023-02-08T08:33:13;26.48;;;9.43;;
56667;SDS011;42542;48.360;10.958;2023-02-08T08:36:14;25.17;;;9.17;;
56667;SDS011;42542;48.360;10.958;2023-02-08T08:39:16;26.85;;;9.25;;
56667;SDS011;42542;48.360;10.958;2023-02-08T08:42:18;27.42;;;9.80;;
56667;SDS011;42542;48.360;10.958;2023-02-08T08:45:21;28.35;;;10.32;;
56667;SDS011;42542;48.360;10.958;2023-02-08T08:48:23;24.60;;;8.90;;
56667;SDS011;42542;48.360;10.958;2023-02-08T08:51:24;26.10;;;8.90;;
56667;SDS011;42542;48.360;10.958;2023-02-08T08:54:26;24.27;;;9.23;;
56667;SDS011;42542;48.360;10.958;2023-02-08T08:57:27;29.60;;;10.03;;
56667;SDS011;42542;48.360;10.958;2023-02-08T09:00:30;26.80;;;9.57;;
56667;SDS011;42542;48.360;10.958;2023-02-08T09:03:31;25.05;;;8.70;;
56667;SDS011;42542;48.360;10.958;2023-02-08T09:06:34;30.13;;;8.57;;
56667;SDS011;42542;48.360;10.958;2023-02-08T09:09:36;28.27;;;9.48;;
56667;SDS011;42542;48.360;10.958;2023-02-08T09:12:38;27.58;;;9.68;;
56667;SDS011;42542;48.360;10.958;2023-02-08T09:15:40;24.00;;;8.75;;
56667;SDS011;42542;48.360;10.958;2023-02-08T09:18:43;24.88;;;9.27;;
56667;SDS011;42542;48.360;10.958;2023-02-08T09:21:45;25.83;;;9.45;;
56667;SDS011;42542;48.360;10.958;2023-02-08T09:24:47;38.00;;;9.35;;
56667;SDS011;42542;48.360;10.958;2023-02-08T09:27:49;32.60;;;9.77;;
56667;SDS011;42542;48.360;10.958;2023-02-08T09:30:51;26.13;;;9.65;;
56667;SDS011;42542;48.360;10.958;2023-02-08T09:33:54;31.25;;;10.52;;
56667;SDS011;42542;48.360;10.958;2023-02-08T09:36:59;26.53;;;8.87;;
56667;SDS011;42542;48.360;10.958;2023-02-08T09:40:00;30.02;;;10.15;;
56667;SDS011;42542;48.360;10.958;2023-02-08T09:43:10;27.80;;;9.10;;
56667;SDS011;42542;48.360;10.958;2023-02-08T09:46:21;24.98;;;9.30;;
56667;SDS011;42542;48.360;10.958;2023-02-08T09:49:33;27.02;;;9.23;;
56667;SDS011;42542;48.360;10.958;2023-02-08T09:52:43;26.75;;;8.68;;
56667;SDS011;42542;48.360;10.958;2023-02-08T09:55:56;25.63;;;9.43;;
56667;SDS011;42542;48.360;10.958;2023-02-08T09:59:02;25.17;;;9.20;;
56667;SDS011;42542;48.360;10.958;2023-02-08T10:02:18;26.60;;;9.40;;
56667;SDS011;42542;48.360;10.958;2023-02-08T10:05:28;24.23;;;8.52;;
56667;SDS011;42542;48.360;10.958;2023-02-08T10:08:31;24.60;;;8.27;;
56667;SDS011;42542;48.360;10.958;2023-02-08T10:11:39;23.88;;;7.78;;
56667;SDS011;42542;48.360;10.958;2023-02-08T10:25:02;21.88;;;8.85;;
56667;SDS011;42542;48.360;10.958;2023-02-08T10:35:23;24.58;;;8.75;;
56667;SDS011;42542;48.360;10.958;2023-02-08T10:38:32;25.85;;;8.85;;
56667;SDS011;42542;48.360;10.958;2023-02-08T10:41:46;23.33;;;8.17;;
56667;SDS011;42542;48.360;10.958;2023-02-08T10:48:34;23.73;;;8.60;;
56667;SDS011;42542;48.360;10.958;2023-02-08T10:51:39;23.73;;;8.68;;
56667;SDS011;42542;48.360;10.958;2023-02-08T10:54:41;23.27;;;8.27;;
56667;SDS011;42542;48.360;10.958;2023-02-08T10:57:42;24.85;;;8.73;;
56667;SDS011;42542;48.360;10.958;2023-02-08T11:00:48;25.63;;;9.07;;
56667;SDS011;42542;48.360;10.958;2023-02-08T11:04:02;22.00;;;8.10;;
56667;SDS011;42542;48.360;10.958;2023-02-08T11:07:19;23.48;;;7.72;;
56667;SDS011;42542;48.360;10.958;2023-02-08T11:10:24;24.08;;;8.88;;
56667;SDS011;42542;48.360;10.958;2023-02-08T11:13:33;27.63;;;8.47;;
56667;SDS011;42542;48.360;10.958;2023-02-08T11:16:47;24.25;;;8.98;;
56667;SDS011;42542;48.360;10.958;2023-02-08T11:19:51;27.23;;;9.23;;
56667;SDS011;42542;48.360;10.958;2023-02-08T11:22:53;24.00;;;8.43;;
56667;SDS011;42542;48.360;10.958;2023-02-08T11:26:11;25.23;;;8.55;;
56667;SDS011;42542;48.360;10.958;2023-02-08T11:32:19;22.65;;;7.95;;
56667;SDS011;42542;48.360;10.958;2023-02-08T11:35:21;25.77;;;9.13;;
56667;SDS011;42542;48.360;10.958;2023-02-08T11:38:25;24.33;;;9.02;;
56667;SDS011;42542;48.360;10.958;2023-02-08T11:41:28;26.52;;;9.07;;
56667;SDS011;42542;48.360;10.958;2023-02-08T11:44:34;22.70;;;8.47;;
56667;SDS011;42542;48.360;10.958;2023-02-08T11:47:44;24.30;;;9.30;;
56667;SDS011;42542;48.360;10.958;2023-02-08T11:50:55;23.83;;;8.25;;
56667;SDS011;42542;48.360;10.958;2023-02-08T11:54:00;22.25;;;8.60;;
56667;SDS011;42542;48.360;10.958;2023-02-08T11:57:20;29.52;;;8.93;;
56667;SDS011;42542;48.360;10.958;2023-02-08T12:00:35;23.00;;;8.73;;
56667;SDS011;42542;48.360;10.958;2023-02-08T12:03:38;24.92;;;8.95;;
56667;SDS011;42542;48.360;10.958;2023-02-08T12:06:54;25.10;;;9.10;;
56667;SDS011;42542;48.360;10.958;2023-02-08T12:42:50;22.95;;;8.93;;
56667;SDS011;42542;48.360;10.958;2023-02-08T12:52:49;23.35;;;8.43;;
56667;SDS011;42542;48.360;10.958;2023-02-08T12:55:56;28.30;;;8.85;;
56667;SDS011;42542;48.360;10.958;2023-02-08T12:59:01;25.38;;;8.32;;
56667;SDS011;42542;48.360;10.958;2023-02-08T13:02:20;24.73;;;8.82;;
56667;SDS011;42542;48.360;10.958;2023-02-08T13:05:28;22.17;;;7.68;;
56667;SDS011;42542;48.360;10.958;2023-02-08T13:08:57;24.88;;;8.27;;
56667;SDS011;42542;48.360;10.958;2023-02-08T13:12:03;23.60;;;7.87;;
56667;SDS011;42542;48.360;10.958;2023-02-08T13:18:32;19.40;;;7.18;;
56667;SDS011;42542;48.360;10.958;2023-02-08T13:21:48;22.27;;;7.50;;
56667;SDS011;42542;48.360;10.958;2023-02-08T13:24:52;21.08;;;7.80;;
56667;SDS011;42542;48.360;10.958;2023-02-08T13:28:12;21.75;;;7.50;;
56667;SDS011;42542;48.360;10.958;2023-02-08T13:31:22;23.02;;;8.00;;
56667;SDS011;42542;48.360;10.958;2023-02-08T13:37:32;19.05;;;7.78;;
56667;SDS011;42542;48.360;10.958;2023-02-08T13:40:36;21.75;;;7.78;;
56667;SDS011;42542;48.360;10.958;2023-02-08T13:43:44;21.33;;;7.90;;
56667;SDS011;42542;48.360;10.958;2023-02-08T13:46:50;23.65;;;8.85;;
56667;SDS011;42542;48.360;10.958;2023-02-08T13:50:03;24.30;;;8.88;;
56667;SDS011;42542;48.360;10.958;2023-02-08T13:53:10;23.20;;;8.63;;
56667;SDS011;42542;48.360;10.958;2023-02-08T13:56:19;21.38;;;8.13;;
56667;SDS011;42542;48.360;10.958;2023-02-08T13:59:43;22.77;;;8.70;;
56667;SDS011;42542;48.360;10.958;2023-02-08T14:02:56;22.05;;;7.85;;
56667;SDS011;42542;48.360;10.958;2023-02-08T14:06:04;25.80;;;7.95;;
56667;SDS011;42542;48.360;10.958;2023-02-08T14:09:30;21.35;;;7.90;;
56667;SDS011;42542;48.360;10.958;2023-02-08T14:12:44;20.27;;;7.53;;
56667;SDS011;42542;48.360;10.958;2023-02-08T14:19:27;22.08;;;7.80;;
56667;SDS011;42542;48.360;10.958;2023-02-08T14:22:34;21.25;;;7.53;;
56667;SDS011;42542;48.360;10.958;2023-02-08T14:25:42;23.00;;;8.20;;
56667;SDS011;42542;48.360;10.958;2023-02-08T14:28:49;21.17;;;7.47;;
56667;SDS011;42542;48.360;10.958;2023-02-08T14:31:56;21.33;;;7.82;;
56667;SDS011;42542;48.360;10.958;2023-02-08T14:44:56;20.92;;;7.57;;
56667;SDS011;42542;48.360;10.958;2023-02-08T14:57:30;20.53;;;7.87;;
56667;SDS011;42542;48.360;10.958;2023-02-08T15:00:36;21.95;;;8.65;;
56667;SDS011;42542;48.360;10.958;2023-02-08T15:03:40;24.52;;;9.00;;
56667;SDS011;42542;48.360;10.958;2023-02-08T15:06:51;21.77;;;8.35;;
56667;SDS011;42542;48.360;10.958;2023-02-08T15:10:04;19.33;;;7.57;;
56667;SDS011;42542;48.360;10.958;2023-02-08T15:13:19;20.48;;;7.07;;
56667;SDS011;42542;48.360;10.958;2023-02-08T15:16:27;21.08;;;7.43;;
56667;SDS011;42542;48.360;10.958;2023-02-08T15:19:34;18.87;;;7.27;;
56667;SDS011;42542;48.360;10.958;2023-02-08T15:22:39;22.30;;;8.20;;
56667;SDS011;42542;48.360;10.958;2023-02-08T15:25:40;22.00;;;7.93;;
56667;SDS011;42542;48.360;10.958;2023-02-08T15:28:44;23.50;;;8.10;;
56667;SDS011;42542;48.360;10.958;2023-02-08T15:31:45;24.63;;;8.18;;
56667;SDS011;42542;48.360;10.958;2023-02-08T15:34:58;20.30;;;8.38;;
56667;SDS011;42542;48.360;10.958;2023-02-08T15:38:02;21.20;;;7.97;;
56667;SDS011;42542;48.360;10.958;2023-02-08T15:41:08;23.65;;;8.77;;
56667;SDS011;42542;48.360;10.958;2023-02-08T15:44:19;27.48;;;9.50;;
56667;SDS011;42542;48.360;10.958;2023-02-08T15:47:26;21.38;;;8.50;;
56667;SDS011;42542;48.360;10.958;2023-02-08T15:50:31;21.03;;;8.30;;
56667;SDS011;42542;48.360;10.958;2023-02-08T15:53:34;23.90;;;8.85;;
56667;SDS011;42542;48.360;10.958;2023-02-08T15:56:36;25.92;;;7.97;;
56667;SDS011;42542;48.360;10.958;2023-02-08T15:59:43;23.47;;;8.80;;
56667;SDS011;42542;48.360;10.958;2023-02-08T16:02:49;26.60;;;10.43;;
56667;SDS011;42542;48.360;10.958;2023-02-08T16:05:58;24.65;;;8.82;;
56667;SDS011;42542;48.360;10.958;2023-02-08T16:09:03;23.30;;;9.00;;
56667;SDS011;42542;48.360;10.958;2023-02-08T16:12:12;22.48;;;8.45;;
56667;SDS011;42542;48.360;10.958;2023-02-08T16:15:32;25.48;;;9.18;;
56667;SDS011;42542;48.360;10.958;2023-02-08T16:18:58;23.77;;;8.70;;
56667;SDS011;42542;48.360;10.958;2023-02-08T16:25:23;22.98;;;8.18;;
56667;SDS011;42542;48.360;10.958;2023-02-08T16:28:37;24.92;;;8.73;;
56667;SDS011;42542;48.360;10.958;2023-02-08T16:31:39;23.83;;;9.00;;
56667;SDS011;42542;48.360;10.958;2023-02-08T16:34:43;23.45;;;8.13;;
56667;SDS011;42542;48.360;10.958;2023-02-08T16:37:51;23.73;;;8.88;;
56667;SDS011;42542;48.360;10.958;2023-02-08T16:40:55;22.52;;;8.85;;
56667;SDS011;42542;48.360;10.958;2023-02-08T16:44:16;23.65;;;7.65;;
56667;SDS011;42542;48.360;10.958;2023-02-08T16:47:25;23.27;;;8.15;;
56667;SDS011;42542;48.360;10.958;2023-02-08T16:50:34;21.23;;;7.68;;
56667;SDS011;42542;48.360;10.958;2023-02-08T16:53:39;21.03;;;7.17;;
56667;SDS011;42542;48.360;10.958;2023-02-08T16:56:43;22.15;;;8.43;;
56667;SDS011;42542;48.360;10.958;2023-02-08T16:59:46;25.23;;;8.45;;
56667;SDS011;42542;48.360;10.958;2023-02-08T17:02:48;20.27;;;7.97;;
56667;SDS011;42542;48.360;10.958;2023-02-08T17:05:50;21.02;;;7.45;;
56667;SDS011;42542;48.360;10.958;2023-02-08T17:08:54;20.60;;;7.55;;
56667;SDS011;42542;48.360;10.958;2023-02-08T17:11:56;23.17;;;7.93;;
56667;SDS011;42542;48.360;10.958;2023-02-08T17:14:59;20.88;;;7.97;;
56667;SDS011;42542;48.360;10.958;2023-02-08T17:18:00;22.98;;;8.15;;
56667;SDS011;42542;48.360;10.958;2023-02-08T17:21:02;21.80;;;7.78;;
56667;SDS011;42542;48.360;10.958;2023-02-08T17:24:05;20.47;;;7.50;;
56667;SDS011;42542;48.360;10.958;2023-02-08T17:27:10;20.95;;;7.88;;
56667;SDS011;42542;48.360;10.958;2023-02-08T17:30:17;22.10;;;7.47;;
56667;SDS011;42542;48.360;10.958;2023-02-08T17:33:21;21.20;;;8.00;;
56667;SDS011;42542;48.360;10.958;2023-02-08T17:36:23;20.95;;;7.78;;
56667;SDS011;42542;48.360;10.958;2023-02-08T17:39:24;24.33;;;8.13;;
56667;SDS011;42542;48.360;10.958;2023-02-08T17:42:26;21.92;;;7.47;;
56667;SDS011;42542;48.360;10.958;2023-02-08T17:45:28;21.98;;;7.60;;
56667;SDS011;42542;48.360;10.958;2023-02-08T17:48:30;20.90;;;7.25;;
56667;SDS011;42542;48.360;10.958;2023-02-08T17:51:32;22.33;;;7.25;;
56667;SDS011;42542;48.360;10.958;2023-02-08T17:54:35;23.07;;;7.20;;
56667;SDS011;42542;48.360;10.958;2023-02-08T17:57:38;17.95;;;6.55;;
56667;SDS011;42542;48.360;10.958;2023-02-08T18:00:41;20.90;;;7.13;;
56667;SDS011;42542;48.360;10.958;2023-02-08T18:03:43;22.07;;;7.30;;
56667;SDS011;42542;48.360;10.958;2023-02-08T18:06:46;25.92;;;7.10;;
56667;SDS011;42542;48.360;10.958;2023-02-08T18:09:47;21.58;;;6.63;;
56667;SDS011;42542;48.360;10.958;2023-02-08T18:12:49;19.58;;;7.03;;
56667;SDS011;42542;48.360;10.958;2023-02-08T18:15:51;21.25;;;7.35;;
56667;SDS011;42542;48.360;10.958;2023-02-08T18:18:53;52.13;;;16.10;;
56667;SDS011;42542;48.360;10.958;2023-02-08T18:21:57;42.80;;;14.15;;
56667;SDS011;42542;48.360;10.958;2023-02-08T18:25:01;47.63;;;15.60;;
56667;SDS011;42542;48.360;10.958;2023-02-08T18:28:04;31.80;;;11.55;;
56667;SDS011;42542;48.360;10.958;2023-02-08T18:31:07;46.92;;;12.05;;
56667;SDS011;42542;48.360;10.958;2023-02-08T18:34:10;30.53;;;9.97;;
56667;SDS011;42542;48.360;10.958;2023-02-08T18:37:12;28.02;;;9.20;;
56667;SDS011;42542;48.360;10.958;2023-02-08T18:40:15;23.92;;;7.65;;
56667;SDS011;42542;48.360;10.958;2023-02-08T18:43:17;24.48;;;8.80;;
56667;SDS011;42542;48.360;10.958;2023-02-08T18:46:20;24.90;;;8.05;;
56667;SDS011;42542;48.360;10.958;2023-02-08T18:49:23;21.83;;;7.53;;
56667;SDS011;42542;48.360;10.958;2023-02-08T18:52:25;21.73;;;7.57;;
56667;SDS011;42542;48.360;10.958;2023-02-08T18:55:27;27.40;;;9.47;;
56667;SDS011;42542;48.360;10.958;2023-02-08T18:58:28;35.90;;;14.52;;
56667;SDS011;42542;48.360;10.958;2023-02-08T19:01:30;40.78;;;15.60;;
56667;SDS011;42542;48.360;10.958;2023-02-08T19:04:36;28.10;;;9.70;;
56667;SDS011;42542;48.360;10.958;2023-02-08T19:07:39;19.50;;;7.00;;
56667;SDS011;42542;48.360;10.958;2023-02-08T19:10:41;20.85;;;6.75;;
56667;SDS011;42542;48.360;10.958;2023-02-08T19:13:44;18.15;;;6.88;;
56667;SDS011;42542;48.360;10.958;2023-02-08T19:16:46;20.05;;;7.47;;
56667;SDS011;42542;48.360;10.958;2023-02-08T19:19:47;24.52;;;8.45;;
56667;SDS011;42542;48.360;10.958;2023-02-08T19:22:49;22.58;;;8.25;;
56667;SDS011;42542;48.360;10.958;2023-02-08T19:25:50;24.63;;;10.20;;
56667;SDS011;42542;48.360;10.958;2023-02-08T19:28:53;22.08;;;9.63;;
56667;SDS011;42542;48.360;10.958;2023-02-08T19:31:58;24.17;;;8.95;;
56667;SDS011;42542;48.360;10.958;2023-02-08T19:34:59;23.87;;;8.03;;
56667;SDS011;42542;48.360;10.958;2023-02-08T19:38:01;23.05;;;9.77;;
56667;SDS011;42542;48.360;10.958;2023-02-08T19:41:03;23.60;;;10.18;;
56667;SDS011;42542;48.360;10.958;2023-02-08T19:44:06;21.05;;;9.15;;
56667;SDS011;42542;48.360;10.958;2023-02-08T19:47:09;22.52;;;8.50;;
56667;SDS011;42542;48.360;10.958;2023-02-08T19:50:11;23.50;;;8.35;;
56667;SDS011;42542;48.360;10.958;2023-02-08T19:53:13;20.63;;;7.60;;
56667;SDS011;42542;48.360;10.958;2023-02-08T19:56:16;24.73;;;7.47;;
56667;SDS011;42542;48.360;10.958;2023-02-08T19:59:23;24.48;;;8.18;;
56667;SDS011;42542;48.360;10.958;2023-02-08T20:02:27;21.52;;;7.32;;
56667;SDS011;42542;48.360;10.958;2023-02-08T20:05:29;19.00;;;6.60;;
56667;SDS011;42542;48.360;10.958;2023-02-08T20:08:36;20.60;;;6.30;;